Lacoochee, Florida
Current Conditions -  °F | °C
As of 5:35 AM on Saturday 22 Nov 2014 (Local Time) from KZPH Reporting Station
Overcast Overcast  
Wind Chill: 59°   Ceiling: 7500
Heat Index: 59°   Visibility: 10mi
Dew Point: 59°   Wind: 7mph
Humidity: 100%   Direction: 40°NE
Pressure: 30.23"   Gusts: NA
Location:  28.47°N, 82.17°W
Report Text: KZPH 221035Z AUTO 04006KT 10SM OVC075 15/15 A3023 RMK AO2
Loading
Personal Weather Stations






























Interactive Weather Map New forecast layout! Learn more

10-Day Weather Forecast

Advertisements
Track Severe Weather on mobile